Hawaii Volcanoes National Park, Hawaii
Current Conditions -  °F | °C
As of 8:42 PM on Tuesday 25 Nov 2014 (Local Time) from PHTO Reporting Station
Light Rain Light Rain  
Wind Chill: 67°   Ceiling: 900
Heat Index: 67°   Visibility: 10mi
Dew Point: 67°   Wind: 7mph
Humidity: 100%   Direction: 320°NW
Pressure: 30.07"   Gusts: NA
Location:  19.34°N, 155.3°W
Report Text: PHTO 260642Z 32006KT 10SM -RA BKN009 BKN017 OVC022 19/19 A3007 RMK AO2 RAB12 P0000 T01940194 $
Loading
Personal Weather Stations






























Interactive Weather Map New forecast layout! Learn more

10-Day Weather Forecast

Advertisements
Track Severe Weather on mobile